Time;durP1;ratioP1;P1;durP2;ratioP2;P2;SDS_P1;SDS_P2;PMS_P1;PMS_P2;Temp;Humidity;BMP_temperature;BMP_pressure;BME280_temperature;BME280_humidity;BME280_pressure;Samples;Min_cycle;Max_cycle;Signal;HPM_P1;HPM_P2
2023/05/29 00:00:32;;;;;;;14.80;5.40;;;12.50;99.90;;;;;;5088347;28;20028;-82
2023/05/29 00:02:58;;;;;;;11.10;5.22;;;12.40;99.90;;;;;;5073601;28;20188;-82
2023/05/29 00:05:24;;;;;;;12.82;4.78;;;12.40;99.90;;;;;;5083060;28;20051;-82
2023/05/29 00:07:50;;;;;;;11.80;4.68;;;12.40;99.90;;;;;;5075226;28;20111;-82
2023/05/29 00:10:16;;;;;;;14.63;5.40;;;12.40;99.90;;;;;;5072967;28;20032;-82
2023/05/29 00:12:42;;;;;;;15.43;5.55;;;12.40;99.90;;;;;;5077243;28;20055;-82
2023/05/29 00:15:10;;;;;;;10.77;5.13;;;12.30;99.90;;;;;;5087472;28;20040;-82
2023/05/29 00:17:35;;;;;;;12.60;5.68;;;12.30;99.90;;;;;;5061061;28;20089;-82
2023/05/29 00:20:23;;;;;;;14.05;5.88;;;12.30;99.90;;;;;;5075789;28;20037;-82
2023/05/29 00:22:48;;;;;;;17.13;5.63;;;12.20;99.90;;;;;;5082698;28;20127;-81
2023/05/29 00:25:18;;;;;;;11.48;4.30;;;12.20;99.90;;;;;;5079539;28;20124;-82
2023/05/29 00:27:43;;;;;;;10.32;5.35;;;12.10;99.90;;;;;;5089824;28;20066;-82
2023/05/29 00:30:09;;;;;;;13.88;5.70;;;12.10;99.90;;;;;;5077454;28;20044;-82
2023/05/29 00:32:35;;;;;;;15.65;4.85;;;12.10;99.90;;;;;;5077966;28;20653;-82
2023/05/29 00:35:04;;;;;;;13.50;5.13;;;12.10;99.90;;;;;;5076606;28;20032;-82
2023/05/29 00:37:30;;;;;;;20.92;5.72;;;12.00;99.90;;;;;;5076444;28;20024;-82
2023/05/29 00:39:55;;;;;;;14.52;4.88;;;12.00;99.90;;;;;;5090357;28;20038;-82
2023/05/29 00:42:21;;;;;;;11.30;4.80;;;11.90;99.90;;;;;;5093314;28;20035;-82
2023/05/29 00:44:50;;;;;;;16.27;5.70;;;11.90;99.90;;;;;;5085749;28;20032;-82
2023/05/29 00:47:16;;;;;;;17.73;5.55;;;11.90;99.90;;;;;;5089017;28;20132;-82
2023/05/29 00:49:41;;;;;;;11.50;5.97;;;11.90;99.90;;;;;;5079526;28;20419;-81
2023/05/29 00:52:08;;;;;;;12.40;5.85;;;11.90;99.90;;;;;;5078056;28;20103;-82
2023/05/29 00:54:34;;;;;;;13.68;5.70;;;11.90;99.90;;;;;;5074554;28;20024;-82
2023/05/29 00:57:02;;;;;;;17.23;4.95;;;11.80;99.90;;;;;;5076753;28;20020;-82
2023/05/29 00:59:32;;;;;;;20.70;5.70;;;11.80;99.90;;;;;;5086394;28;20057;-82
2023/05/29 01:01:58;;;;;;;11.77;5.57;;;11.80;99.90;;;;;;5082975;28;20039;-82
2023/05/29 01:04:26;;;;;;;12.98;4.97;;;11.70;99.90;;;;;;5076345;28;20260;-82
2023/05/29 01:06:52;;;;;;;9.18;4.72;;;11.70;99.90;;;;;;5090797;28;20164;-82
2023/05/29 01:09:17;;;;;;;13.32;5.93;;;11.60;99.90;;;;;;5082558;28;20670;-82
2023/05/29 01:12:08;;;;;;;16.25;6.28;;;11.70;99.90;;;;;;5093222;28;20039;-82
2023/05/29 01:14:39;;;;;;;15.60;5.40;;;11.70;99.90;;;;;;5086747;28;20064;-82
2023/05/29 01:17:22;;;;;;;13.43;5.75;;;11.70;99.90;;;;;;5090822;28;20474;-82
2023/05/29 01:20:09;;;;;;;10.95;5.25;;;11.60;99.90;;;;;;5082999;28;20031;-82
2023/05/29 01:22:51;;;;;;;11.60;5.45;;;11.60;99.90;;;;;;5083265;28;20562;-82
2023/05/29 01:25:29;;;;;;;15.02;5.80;;;11.60;99.90;;;;;;5080182;28;20036;-83
2023/05/29 01:28:26;;;;;;;15.23;6.00;;;11.60;99.90;;;;;;5092118;28;20020;-82
2023/05/29 01:30:53;;;;;;;16.33;6.10;;;11.60;99.90;;;;;;5074612;28;20024;-82
2023/05/29 01:33:19;;;;;;;13.10;6.05;;;11.60;99.90;;;;;;5087018;28;20051;-82
2023/05/29 01:35:45;;;;;;;14.88;6.30;;;11.60;99.90;;;;;;5074748;28;20291;-81
2023/05/29 01:38:11;;;;;;;14.40;5.50;;;11.60;99.90;;;;;;5092740;28;20020;-82
2023/05/29 01:40:37;;;;;;;15.20;4.85;;;11.50;99.90;;;;;;5075253;28;20051;-82
2023/05/29 01:43:03;;;;;;;15.68;6.28;;;11.50;99.90;;;;;;5078783;28;20492;-82
2023/05/29 01:45:30;;;;;;;15.38;5.70;;;11.50;99.90;;;;;;5079275;28;20031;-82
2023/05/29 01:47:56;;;;;;;15.68;6.40;;;11.60;99.90;;;;;;5080956;28;20504;-82
2023/05/29 01:50:25;;;;;;;15.90;6.28;;;11.60;99.90;;;;;;5080824;28;20051;-82
2023/05/29 01:52:50;;;;;;;17.23;6.40;;;11.50;99.90;;;;;;5074135;28;20044;-82
2023/05/29 01:55:16;;;;;;;25.85;7.28;;;11.50;99.90;;;;;;5084847;28;20036;-82
2023/05/29 01:57:43;;;;;;;14.13;5.75;;;11.50;99.90;;;;;;5078339;28;20032;-82
2023/05/29 02:00:10;;;;;;;17.55;6.32;;;11.50;99.90;;;;;;5085582;28;20100;-82
2023/05/29 02:02:40;;;;;;;13.15;5.57;;;11.50;99.90;;;;;;5090721;28;20095;-82
2023/05/29 02:05:08;;;;;;;17.65;6.72;;;11.50;99.90;;;;;;5086259;28;20047;-82
2023/05/29 02:07:34;;;;;;;12.82;5.97;;;11.50;99.90;;;;;;5082078;28;20023;-82
2023/05/29 02:10:00;;;;;;;16.48;6.60;;;11.60;99.90;;;;;;5078354;28;20655;-82
2023/05/29 02:12:25;;;;;;;16.38;6.38;;;11.60;99.90;;;;;;5085684;28;20039;-82
2023/05/29 02:14:51;;;;;;;24.83;8.13;;;11.60;99.90;;;;;;5079107;28;20036;-82
2023/05/29 02:17:19;;;;;;;17.35;6.60;;;11.60;99.90;;;;;;5079817;28;20047;-82
2023/05/29 02:19:44;;;;;;;20.98;7.00;;;11.70;99.90;;;;;;5090982;28;20087;-83
2023/05/29 02:22:10;;;;;;;21.50;7.50;;;11.70;99.90;;;;;;5082837;28;20736;-82
2023/05/29 02:24:35;;;;;;;24.52;7.82;;;11.80;99.90;;;;;;5083400;28;20024;-83
2023/05/29 02:27:02;;;;;;;22.70;7.30;;;11.80;99.90;;;;;;5086088;28;20028;-83
2023/05/29 02:29:28;;;;;;;19.38;6.45;;;11.90;99.90;;;;;;5087425;28;20386;-83
2023/05/29 02:31:54;;;;;;;18.55;7.03;;;11.90;99.90;;;;;;5096304;28;20026;-83
2023/05/29 02:34:22;;;;;;;15.10;6.55;;;11.90;99.90;;;;;;5075794;28;20043;-83
2023/05/29 02:36:54;;;;;;;16.50;6.72;;;11.90;99.90;;;;;;5083769;28;20032;-82
2023/05/29 02:39:20;;;;;;;12.23;6.20;;;11.90;99.90;;;;;;5092993;28;20065;-82
2023/05/29 02:41:46;;;;;;;17.42;6.53;;;11.90;99.90;;;;;;5076563;28;20028;-83
2023/05/29 02:44:11;;;;;;;24.27;6.85;;;11.90;99.90;;;;;;5076356;28;20237;-82
2023/05/29 02:46:37;;;;;;;23.65;8.45;;;11.90;99.90;;;;;;5077796;28;20075;-82
2023/05/29 02:49:02;;;;;;;20.00;7.97;;;11.90;99.90;;;;;;5074777;28;20031;-83
2023/05/29 02:51:28;;;;;;;17.73;7.00;;;11.80;99.90;;;;;;5087058;28;20028;-82
2023/05/29 02:53:54;;;;;;;24.08;7.75;;;11.80;99.90;;;;;;5085236;28;20086;-82
2023/05/29 02:56:23;;;;;;;22.10;6.70;;;11.80;99.90;;;;;;5087338;28;20019;-82
2023/05/29 02:58:50;;;;;;;18.45;6.65;;;11.90;99.90;;;;;;5078361;28;20039;-82
2023/05/29 03:01:15;;;;;;;20.50;6.28;;;11.90;99.90;;;;;;5070564;28;20032;-84
2023/05/29 03:03:41;;;;;;;20.77;7.05;;;11.90;99.90;;;;;;5080165;28;20540;-84
2023/05/29 03:06:07;;;;;;;21.92;7.20;;;11.80;99.90;;;;;;5096856;28;20077;-84
2023/05/29 03:08:35;;;;;;;14.25;6.95;;;11.80;99.90;;;;;;5084994;28;20032;-84
2023/05/29 03:11:00;;;;;;;16.75;7.13;;;11.80;99.90;;;;;;5069767;28;20029;-83
2023/05/29 03:13:26;;;;;;;25.25;6.80;;;11.80;99.90;;;;;;5080116;28;20370;-83
2023/05/29 03:15:56;;;;;;;16.73;7.05;;;11.80;99.90;;;;;;5086546;28;20049;-83
2023/05/29 03:18:24;;;;;;;18.85;6.93;;;11.80;99.90;;;;;;5087766;28;20051;-84
2023/05/29 03:20:49;;;;;;;16.20;6.72;;;11.70;99.90;;;;;;5084310;28;20031;-83
2023/05/29 03:23:15;;;;;;;17.50;5.85;;;11.70;99.90;;;;;;5088139;28;20019;-81
2023/05/29 03:25:40;;;;;;;17.90;7.15;;;11.70;99.90;;;;;;5082627;28;20056;-83
2023/05/29 03:28:06;;;;;;;19.98;6.22;;;11.60;99.90;;;;;;5083118;28;20450;-82
2023/05/29 03:30:31;;;;;;;18.08;7.18;;;11.60;99.90;;;;;;5059214;28;20028;-81
2023/05/29 03:33:03;;;;;;;21.73;6.53;;;11.60;99.90;;;;;;5079299;28;20200;-81
2023/05/29 03:35:29;;;;;;;15.30;6.65;;;11.60;99.90;;;;;;5078574;28;20095;-83
2023/05/29 03:37:55;;;;;;;27.15;9.38;;;11.70;99.90;;;;;;5093014;28;20032;-84
2023/05/29 03:40:21;;;;;;;23.73;7.65;;;11.60;99.90;;;;;;5074627;28;20028;-83
2023/05/29 03:42:46;;;;;;;23.83;8.00;;;11.60;99.90;;;;;;5082145;28;20110;-83
2023/05/29 03:45:12;;;;;;;17.45;6.97;;;11.60;99.90;;;;;;5080557;28;20055;-83
2023/05/29 03:47:38;;;;;;;16.33;7.20;;;11.60;99.90;;;;;;5090104;28;20016;-84
2023/05/29 03:50:04;;;;;;;18.92;6.97;;;11.60;99.90;;;;;;5077633;28;20436;-83
2023/05/29 03:52:30;;;;;;;17.45;7.13;;;11.50;99.90;;;;;;5083905;28;20047;-84
2023/05/29 03:54:55;;;;;;;18.30;6.47;;;11.60;99.90;;;;;;5052163;28;20470;-83
2023/05/29 03:57:21;;;;;;;20.00;7.25;;;11.60;99.90;;;;;;5080759;28;20027;-84
2023/05/29 03:59:46;;;;;;;18.83;7.90;;;11.60;99.90;;;;;;5074435;28;20034;-84
2023/05/29 04:02:12;;;;;;;19.60;7.25;;;11.60;99.90;;;;;;5074871;28;20662;-84
2023/05/29 04:04:39;;;;;;;15.35;6.65;;;11.60;99.90;;;;;;5078954;28;20030;-83
2023/05/29 04:07:06;;;;;;;15.13;5.75;;;11.60;99.90;;;;;;5082034;28;20039;-81
2023/05/29 04:09:32;;;;;;;16.75;5.57;;;11.70;99.90;;;;;;5072596;28;20016;-81
2023/05/29 04:11:59;;;;;;;12.70;6.50;;;11.60;99.90;;;;;;5085460;28;20132;-81
2023/05/29 04:14:25;;;;;;;12.05;5.15;;;11.70;99.90;;;;;;5081026;28;20044;-82
2023/05/29 04:16:51;;;;;;;14.50;6.60;;;11.70;99.90;;;;;;5072476;28;20378;-82
2023/05/29 04:19:17;;;;;;;19.38;6.78;;;11.80;99.90;;;;;;5077929;28;20035;-81
2023/05/29 04:21:42;;;;;;;16.45;6.10;;;11.80;99.90;;;;;;5089317;28;20036;-81
2023/05/29 04:24:08;;;;;;;19.67;6.43;;;11.90;99.90;;;;;;5073996;28;20633;-81
2023/05/29 04:26:34;;;;;;;11.65;5.95;;;11.90;99.90;;;;;;5089656;28;20054;-81
2023/05/29 04:29:00;;;;;;;9.73;5.60;;;11.90;99.90;;;;;;5080356;28;20035;-81
2023/05/29 04:31:26;;;;;;;18.45;5.45;;;11.90;99.90;;;;;;5090262;28;20031;-81
2023/05/29 04:33:55;;;;;;;17.75;6.47;;;11.90;99.90;;;;;;5087805;28;20039;-80
2023/05/29 04:36:25;;;;;;;16.50;6.13;;;12.00;99.90;;;;;;5070955;28;20024;-81
2023/05/29 04:38:53;;;;;;;16.48;6.80;;;12.10;99.90;;;;;;5075586;28;20386;-81
2023/05/29 04:41:19;;;;;;;13.30;5.03;;;12.10;99.90;;;;;;5073540;28;20040;-81
2023/05/29 04:43:45;;;;;;;12.38;5.15;;;12.10;99.90;;;;;;5083154;28;20046;-81
2023/05/29 04:46:15;;;;;;;20.08;5.88;;;12.10;99.90;;;;;;5095303;28;20028;-81
2023/05/29 04:48:40;;;;;;;14.32;5.28;;;12.20;99.90;;;;;;5091988;28;20088;-81
2023/05/29 04:51:10;;;;;;;15.75;6.20;;;12.20;99.90;;;;;;5074669;28;20032;-81
2023/05/29 04:53:42;;;;;;;13.13;5.70;;;12.20;99.90;;;;;;5088272;28;20130;-82
2023/05/29 04:56:09;;;;;;;11.93;5.45;;;12.30;99.90;;;;;;5076066;28;20024;-81
2023/05/29 04:58:34;;;;;;;15.00;5.72;;;12.40;99.90;;;;;;5084067;28;20028;-82
2023/05/29 05:01:02;;;;;;;17.13;6.15;;;12.40;99.90;;;;;;5078949;28;20038;-83
2023/05/29 05:03:28;;;;;;;20.85;6.72;;;12.40;99.90;;;;;;5100527;28;20020;-83
2023/05/29 05:05:54;;;;;;;14.98;5.95;;;12.40;99.90;;;;;;5080645;28;20126;-83
2023/05/29 05:08:20;;;;;;;16.85;6.43;;;12.40;99.90;;;;;;5082824;28;20127;-83
2023/05/29 05:10:45;;;;;;;15.95;6.45;;;12.40;99.90;;;;;;5080824;28;20406;-81
2023/05/29 05:13:12;;;;;;;17.48;6.22;;;12.40;99.90;;;;;;5081721;28;20036;-83
2023/05/29 05:15:38;;;;;;;13.25;5.45;;;12.50;99.90;;;;;;5071306;28;20033;-81
2023/05/29 05:18:03;;;;;;;21.60;6.35;;;12.50;99.90;;;;;;5077476;28;20099;-83
2023/05/29 05:20:29;;;;;;;13.65;6.10;;;12.50;99.90;;;;;;5080147;28;20024;-84
2023/05/29 05:22:59;;;;;;;11.75;5.65;;;12.50;99.90;;;;;;5085600;28;20374;-81
2023/05/29 05:25:25;;;;;;;16.38;6.07;;;12.60;99.90;;;;;;5080166;28;20052;-84
2023/05/29 05:27:50;;;;;;;15.02;6.25;;;12.60;99.90;;;;;;5081902;28;20435;-83
2023/05/29 05:30:16;;;;;;;15.60;5.60;;;12.60;99.90;;;;;;5090667;28;20329;-83
2023/05/29 05:32:41;;;;;;;13.35;6.32;;;12.60;99.90;;;;;;5078988;28;20032;-83
2023/05/29 05:35:10;;;;;;;17.15;6.47;;;12.60;99.90;;;;;;5086994;28;20035;-83
2023/05/29 05:37:35;;;;;;;17.35;6.40;;;12.70;99.90;;;;;;5076775;28;20035;-83
2023/05/29 05:40:01;;;;;;;11.13;5.10;;;12.70;99.90;;;;;;5083834;28;20891;-84
2023/05/29 05:42:26;;;;;;;15.43;6.30;;;12.70;99.90;;;;;;5074494;28;20028;-81
2023/05/29 05:45:01;;;;;;;17.55;6.50;;;12.70;99.90;;;;;;5086324;28;20114;-82
2023/05/29 05:47:27;;;;;;;17.38;5.88;;;12.70;99.90;;;;;;5080726;28;20524;-84
2023/05/29 05:49:54;;;;;;;15.05;5.82;;;12.70;99.90;;;;;;5085219;28;20032;-84
2023/05/29 05:52:20;;;;;;;13.70;5.43;;;12.80;99.90;;;;;;5082189;28;20043;-82
2023/05/29 05:54:46;;;;;;;12.60;5.38;;;12.80;99.90;;;;;;5081779;28;20042;-82
2023/05/29 05:57:11;;;;;;;12.73;5.63;;;12.80;99.90;;;;;;5083805;28;20026;-82
2023/05/29 05:59:37;;;;;;;15.35;6.03;;;12.90;99.90;;;;;;5079722;28;21629;-80
2023/05/29 06:02:04;;;;;;;18.58;5.88;;;12.90;99.90;;;;;;5082697;28;20027;-82
2023/05/29 06:04:30;;;;;;;12.55;6.10;;;12.90;99.90;;;;;;5082863;28;20205;-81
2023/05/29 06:07:10;;;;;;;21.38;5.97;;;13.00;99.90;;;;;;5077450;28;20055;-84
2023/05/29 06:09:37;;;;;;;17.00;5.95;;;13.10;99.90;;;;;;5082494;28;20477;-82
2023/05/29 06:12:02;;;;;;;13.77;5.53;;;13.10;99.90;;;;;;5079188;28;20500;-82
2023/05/29 06:14:28;;;;;;;11.88;5.63;;;13.10;99.90;;;;;;5073038;28;20025;-81
2023/05/29 06:16:54;;;;;;;13.25;5.72;;;13.20;99.90;;;;;;5055441;28;20032;-82
2023/05/29 06:19:20;;;;;;;14.70;6.05;;;13.20;99.90;;;;;;5084321;28;20028;-82
2023/05/29 06:21:46;;;;;;;14.93;5.35;;;13.20;99.90;;;;;;5070875;28;20115;-81
2023/05/29 06:24:12;;;;;;;16.13;5.93;;;13.30;99.90;;;;;;5080930;28;20031;-81
2023/05/29 06:26:40;;;;;;;13.07;5.22;;;13.30;99.90;;;;;;5070198;28;20155;-82
2023/05/29 06:29:06;;;;;;;12.50;5.88;;;13.30;99.90;;;;;;5084539;28;20051;-81
2023/05/29 06:31:33;;;;;;;10.60;5.32;;;13.40;99.90;;;;;;5079990;28;20027;-82
2023/05/29 06:33:58;;;;;;;11.93;5.85;;;13.40;99.90;;;;;;5081970;28;20441;-81
2023/05/29 06:36:24;;;;;;;18.35;5.63;;;13.50;99.90;;;;;;5073457;28;20024;-81
2023/05/29 06:38:51;;;;;;;13.90;5.28;;;13.50;99.90;;;;;;5085292;28;20028;-81
2023/05/29 06:41:16;;;;;;;11.70;5.88;;;13.60;99.90;;;;;;5070879;28;20143;-81
2023/05/29 06:43:42;;;;;;;15.45;5.82;;;13.70;99.90;;;;;;5083081;28;20110;-81
2023/05/29 06:46:08;;;;;;;17.20;6.10;;;13.70;99.90;;;;;;5082249;28;20118;-81
2023/05/29 06:48:36;;;;;;;15.88;5.95;;;13.70;99.90;;;;;;5086252;28;20043;-81
2023/05/29 06:51:08;;;;;;;17.90;6.28;;;13.80;99.90;;;;;;5059953;28;20865;-82
2023/05/29 06:53:38;;;;;;;11.75;4.95;;;13.80;99.90;;;;;;5085979;28;20035;-81
2023/05/29 06:56:04;;;;;;;15.82;5.97;;;13.80;99.90;;;;;;5082761;28;20042;-81
2023/05/29 06:58:31;;;;;;;12.40;5.30;;;13.90;99.90;;;;;;5081432;28;20440;-82
2023/05/29 07:00:57;;;;;;;12.23;4.70;;;13.90;99.90;;;;;;5080019;28;20040;-81
2023/05/29 07:03:23;;;;;;;18.75;6.13;;;13.90;99.90;;;;;;5068672;28;20023;-81
2023/05/29 07:05:49;;;;;;;15.50;6.65;;;14.00;99.90;;;;;;5082620;28;20036;-81
2023/05/29 07:08:15;;;;;;;15.43;6.35;;;14.10;99.90;;;;;;5070283;28;20024;-80
2023/05/29 07:10:40;;;;;;;13.98;5.97;;;14.10;99.90;;;;;;5071414;28;20055;-80
2023/05/29 07:13:06;;;;;;;15.10;5.18;;;14.10;99.90;;;;;;5081416;28;20040;-81
2023/05/29 07:15:32;;;;;;;20.00;5.78;;;14.20;99.90;;;;;;5079141;28;20047;-81
2023/05/29 07:17:57;;;;;;;19.15;6.35;;;14.20;99.90;;;;;;5084602;28;20032;-81
2023/05/29 07:20:23;;;;;;;18.02;5.78;;;14.30;99.90;;;;;;5086560;28;20030;-81
2023/05/29 07:22:49;;;;;;;17.80;5.50;;;14.30;99.90;;;;;;5073188;28;20386;-80
2023/05/29 07:25:15;;;;;;;11.88;5.43;;;14.40;99.90;;;;;;5071706;28;20093;-81
2023/05/29 07:27:40;;;;;;;13.18;6.68;;;14.40;99.90;;;;;;5079733;28;20397;-82
2023/05/29 07:30:07;;;;;;;12.45;5.63;;;14.50;99.90;;;;;;5082763;28;20031;-81
2023/05/29 07:32:34;;;;;;;9.60;4.82;;;14.50;99.90;;;;;;5084524;28;20043;-81
2023/05/29 07:34:59;;;;;;;15.57;5.30;;;14.50;99.90;;;;;;5068094;28;20483;-82
2023/05/29 07:37:25;;;;;;;10.45;5.00;;;14.50;99.90;;;;;;5079568;28;20031;-81
2023/05/29 07:39:50;;;;;;;13.75;5.07;;;14.60;99.90;;;;;;5084876;28;20377;-80
2023/05/29 07:42:16;;;;;;;16.92;5.75;;;14.70;99.90;;;;;;5087973;28;20032;-81
2023/05/29 07:44:42;;;;;;;12.32;5.38;;;14.70;99.90;;;;;;5073083;28;20036;-82
2023/05/29 07:47:08;;;;;;;12.82;6.25;;;14.80;99.90;;;;;;5076882;28;20024;-83
2023/05/29 07:49:35;;;;;;;12.60;5.85;;;14.80;99.90;;;;;;5081471;28;20378;-81
2023/05/29 07:52:01;;;;;;;10.13;5.25;;;14.90;99.90;;;;;;5079891;28;20032;-82
2023/05/29 07:54:27;;;;;;;14.05;6.45;;;14.90;99.90;;;;;;5078693;28;20064;-82
2023/05/29 07:56:53;;;;;;;14.85;6.30;;;15.00;99.90;;;;;;5077775;28;20107;-80
2023/05/29 07:59:18;;;;;;;13.43;5.38;;;15.10;99.90;;;;;;5074863;28;20016;-82
2023/05/29 08:01:45;;;;;;;14.32;5.50;;;15.10;99.90;;;;;;5073860;28;20028;-82
2023/05/29 08:04:11;;;;;;;10.80;4.93;;;15.10;99.90;;;;;;5056354;28;20344;-81
2023/05/29 08:06:37;;;;;;;9.85;4.60;;;15.20;99.90;;;;;;5079898;28;20119;-82
2023/05/29 08:09:04;;;;;;;13.35;5.40;;;15.20;99.90;;;;;;5076221;28;20040;-81
2023/05/29 08:11:30;;;;;;;16.75;5.05;;;15.30;99.90;;;;;;5076142;28;20077;-81
2023/05/29 08:13:55;;;;;;;19.17;5.57;;;15.40;99.90;;;;;;5080598;28;20032;-82
2023/05/29 08:16:22;;;;;;;14.20;4.75;;;15.40;99.90;;;;;;5072762;28;20632;-82
2023/05/29 08:18:50;;;;;;;12.70;5.05;;;15.40;99.90;;;;;;5075197;28;20035;-80
2023/05/29 08:21:16;;;;;;;14.15;5.22;;;15.50;99.90;;;;;;5069889;28;20047;-81
2023/05/29 08:23:41;;;;;;;17.13;4.72;;;15.50;99.90;;;;;;5083241;28;20051;-80
2023/05/29 08:26:07;;;;;;;14.90;4.35;;;15.50;99.90;;;;;;5085080;28;20040;-80
2023/05/29 08:28:32;;;;;;;12.82;4.38;;;15.60;99.90;;;;;;5078528;28;21821;-80
2023/05/29 08:30:58;;;;;;;14.63;5.70;;;15.70;99.90;;;;;;5071167;28;20024;-81
2023/05/29 08:33:24;;;;;;;12.45;4.60;;;15.80;99.90;;;;;;5065662;28;20036;-80
2023/05/29 08:35:51;;;;;;;14.65;4.40;;;15.90;99.90;;;;;;5079822;28;20473;-81
2023/05/29 08:38:16;;;;;;;12.82;4.45;;;15.90;99.90;;;;;;5072507;28;20077;-81
2023/05/29 08:40:42;;;;;;;16.60;4.35;;;15.90;99.90;;;;;;5085327;28;20116;-81
2023/05/29 08:43:21;;;;;;;12.20;4.38;;;15.90;99.90;;;;;;5080053;28;20029;-80
2023/05/29 08:45:50;;;;;;;12.38;4.22;;;16.00;99.90;;;;;;5080318;28;20113;-80
2023/05/29 08:48:18;;;;;;;11.93;3.70;;;16.00;99.90;;;;;;5092604;28;20038;-79
2023/05/29 08:50:46;;;;;;;15.82;4.97;;;16.10;99.90;;;;;;5085683;28;20107;-79
2023/05/29 08:53:13;;;;;;;10.95;4.25;;;16.10;99.90;;;;;;5069990;28;20064;-80
2023/05/29 08:55:39;;;;;;;8.30;4.28;;;16.20;99.90;;;;;;5064606;28;20073;-81
2023/05/29 08:58:05;;;;;;;11.23;5.05;;;16.20;99.90;;;;;;5075255;28;20103;-81
2023/05/29 09:00:31;;;;;;;10.68;4.10;;;16.30;99.90;;;;;;5075531;28;20624;-81
2023/05/29 09:02:59;;;;;;;6.05;3.47;;;16.30;99.90;;;;;;5078095;28;20016;-81
2023/05/29 09:05:26;;;;;;;13.00;4.13;;;16.40;99.90;;;;;;5079898;28;20402;-81
2023/05/29 09:07:55;;;;;;;9.70;4.28;;;16.40;99.90;;;;;;5080411;28;20028;-81
2023/05/29 09:10:22;;;;;;;13.43;4.25;;;16.50;99.90;;;;;;5082152;28;20484;-80
2023/05/29 09:12:50;;;;;;;10.90;3.90;;;16.60;99.90;;;;;;5091857;28;20032;-80
2023/05/29 09:15:20;;;;;;;11.00;3.67;;;16.70;99.90;;;;;;5085377;28;20473;-80
2023/05/29 09:17:57;;;;;;;8.55;4.03;;;16.70;99.90;;;;;;5094248;28;20027;-81
2023/05/29 09:20:24;;;;;;;9.05;3.65;;;16.70;99.90;;;;;;5080980;28;20346;-80
2023/05/29 09:22:53;;;;;;;11.82;3.67;;;16.70;99.90;;;;;;5093011;28;20023;-80
2023/05/29 09:25:22;;;;;;;6.13;3.53;;;16.70;99.90;;;;;;5079972;28;20043;-80
2023/05/29 09:28:07;;;;;;;16.73;4.32;;;16.70;99.90;;;;;;5077617;28;20028;-81
2023/05/29 09:30:37;;;;;;;7.10;3.65;;;16.90;99.90;;;;;;5086630;28;20381;-81
2023/05/29 09:33:04;;;;;;;17.33;4.43;;;16.90;99.90;;;;;;5091423;28;20042;-80
2023/05/29 09:35:35;;;;;;;11.88;4.07;;;16.90;99.90;;;;;;5082451;28;20077;-80
2023/05/29 09:38:01;;;;;;;9.52;3.92;;;17.00;99.90;;;;;;5077035;28;20057;-80
2023/05/29 09:40:29;;;;;;;10.23;3.67;;;17.10;99.90;;;;;;5076469;28;20048;-80
2023/05/29 09:42:54;;;;;;;17.15;4.22;;;17.20;99.90;;;;;;5064410;28;20019;-80
2023/05/29 09:45:21;;;;;;;7.85;3.10;;;17.20;99.90;;;;;;5071247;28;20024;-81
2023/05/29 09:48:12;;;;;;;9.27;4.28;;;17.30;99.90;;;;;;5073741;28;20119;-81
2023/05/29 09:50:39;;;;;;;10.63;4.03;;;17.30;99.90;;;;;;5080171;28;20111;-80
2023/05/29 09:53:19;;;;;;;12.75;4.43;;;17.30;99.90;;;;;;5082552;28;20412;-80
2023/05/29 09:55:47;;;;;;;8.18;3.72;;;17.30;99.90;;;;;;5091571;28;20023;-81
2023/05/29 09:58:20;;;;;;;12.85;4.03;;;17.40;99.90;;;;;;5090329;28;20580;-80
2023/05/29 10:00:47;;;;;;;17.08;5.07;;;17.40;99.90;;;;;;5059289;28;20470;-79
2023/05/29 10:03:16;;;;;;;9.63;4.05;;;17.40;99.90;;;;;;5073275;28;20035;-80
2023/05/29 10:05:43;;;;;;;11.45;3.55;;;17.50;99.90;;;;;;5085033;28;20016;-79
2023/05/29 10:08:13;;;;;;;15.27;4.82;;;17.50;99.90;;;;;;5080383;28;20289;-79
2023/05/29 10:10:42;;;;;;;5.20;2.83;;;17.50;99.90;;;;;;5074258;28;20027;-79
2023/05/29 10:13:12;;;;;;;10.85;3.72;;;17.60;99.90;;;;;;5086612;28;20270;-79
2023/05/29 10:15:40;;;;;;;12.10;4.18;;;17.60;99.90;;;;;;5058836;28;20016;-79
2023/05/29 10:18:23;;;;;;;11.25;4.10;;;17.70;99.90;;;;;;5063368;28;20016;-79
2023/05/29 10:20:56;;;;;;;8.85;3.72;;;17.70;99.90;;;;;;5065683;28;20024;-82
2023/05/29 10:23:24;;;;;;;11.20;4.38;;;17.80;99.90;;;;;;5077429;28;20039;-80
2023/05/29 10:25:53;;;;;;;15.40;4.40;;;17.80;99.90;;;;;;5080534;28;20489;-79
2023/05/29 10:28:20;;;;;;;15.35;4.70;;;18.00;99.90;;;;;;5090827;28;20029;-79
2023/05/29 10:30:54;;;;;;;14.73;4.10;;;18.10;99.90;;;;;;5085278;28;20395;-80
2023/05/29 10:33:44;;;;;;;9.90;3.95;;;18.10;99.90;;;;;;5074241;28;20369;-80
2023/05/29 10:36:26;;;;;;;14.93;4.03;;;18.20;99.90;;;;;;5068049;28;20031;-79
2023/05/29 10:38:53;;;;;;;5.45;3.47;;;18.20;99.90;;;;;;5078331;28;20036;-80
2023/05/29 10:41:27;;;;;;;9.88;3.88;;;18.20;99.90;;;;;;5081781;28;20092;-81
2023/05/29 10:44:03;;;;;;;8.38;3.85;;;18.20;99.90;;;;;;5079362;28;20465;-80
2023/05/29 10:47:00;;;;;;;8.73;3.47;;;18.20;99.90;;;;;;5072070;28;20066;-80
2023/05/29 10:49:26;;;;;;;7.63;3.15;;;18.30;99.90;;;;;;5048525;28;20040;-80
2023/05/29 10:51:52;;;;;;;13.25;3.55;;;18.30;99.90;;;;;;5087463;28;21175;-80
2023/05/29 10:54:25;;;;;;;8.57;3.42;;;18.30;99.90;;;;;;5082807;28;20511;-79
2023/05/29 10:57:00;;;;;;;6.53;3.58;;;18.40;99.90;;;;;;5087596;28;20070;-83
2023/05/29 10:59:36;;;;;;;12.05;3.75;;;18.50;99.90;;;;;;5076286;28;20075;-81
2023/05/29 11:02:05;;;;;;;11.15;3.55;;;18.60;99.90;;;;;;5080226;28;20036;-83
2023/05/29 11:04:32;;;;;;;10.65;4.00;;;18.60;99.90;;;;;;5074318;28;20426;-84
2023/05/29 11:06:58;;;;;;;8.75;3.63;;;18.60;99.90;;;;;;5092402;28;20461;-84
2023/05/29 11:09:37;;;;;;;20.88;4.55;;;18.60;99.90;;;;;;5095380;28;20012;-82
2023/05/29 11:12:44;;;;;;;8.98;3.70;;;18.70;99.90;;;;;;5075269;28;20021;-82
2023/05/29 11:15:12;;;;;;;12.02;3.95;;;18.80;99.90;;;;;;5066206;28;20105;-83
2023/05/29 11:17:37;;;;;;;14.63;3.58;;;19.00;99.90;;;;;;5080525;28;20055;-83
2023/05/29 11:20:16;;;;;;;10.32;4.13;;;18.90;99.90;;;;;;5072824;28;20024;-83
2023/05/29 11:23:01;;;;;;;9.27;3.42;;;18.80;99.90;;;;;;5076817;28;20027;-83
2023/05/29 11:25:28;;;;;;;11.13;4.10;;;18.80;99.90;;;;;;5070177;28;20489;-83
2023/05/29 11:27:54;;;;;;;15.73;4.00;;;18.70;99.90;;;;;;5080747;28;20031;-83
2023/05/29 11:30:20;;;;;;;8.90;3.28;;;18.70;99.90;;;;;;5068656;28;20024;-83
2023/05/29 11:32:46;;;;;;;10.15;3.97;;;18.70;99.90;;;;;;5076028;28;20053;-83
2023/05/29 11:35:13;;;;;;;14.82;4.47;;;18.70;99.90;;;;;;5075910;28;20028;-83
2023/05/29 11:37:42;;;;;;;10.88;4.10;;;18.70;99.90;;;;;;5080499;28;20090;-83
2023/05/29 11:40:11;;;;;;;11.10;3.47;;;18.80;99.90;;;;;;5079248;28;20318;-85
2023/05/29 11:42:44;;;;;;;9.35;3.75;;;18.80;99.90;;;;;;5082490;28;20015;-83
2023/05/29 11:45:13;;;;;;;14.02;4.30;;;18.80;99.90;;;;;;5084009;28;20115;-84
2023/05/29 11:47:58;;;;;;;12.68;4.43;;;18.80;99.90;;;;;;5088987;28;20073;-83
2023/05/29 11:50:28;;;;;;;13.90;4.43;;;18.70;99.90;;;;;;5070377;28;20106;-83
2023/05/29 11:52:56;;;;;;;10.52;4.20;;;18.70;99.90;;;;;;5082447;28;20647;-83
2023/05/29 11:55:23;;;;;;;9.02;3.70;;;18.80;99.90;;;;;;5073611;28;20399;-83
2023/05/29 11:57:59;;;;;;;10.93;4.07;;;18.80;99.90;;;;;;5093267;28;20020;-84
2023/05/29 12:00:29;;;;;;;10.77;3.40;;;18.90;99.90;;;;;;5089297;28;20032;-83
2023/05/29 12:02:57;;;;;;;10.30;3.67;;;18.90;99.90;;;;;;5075374;28;20395;-84
2023/05/29 12:05:23;;;;;;;10.68;3.40;;;18.80;99.90;;;;;;5076524;28;20024;-83
2023/05/29 12:07:54;;;;;;;10.70;3.20;;;18.70;99.90;;;;;;5075031;28;20026;-84
2023/05/29 12:10:20;;;;;;;10.70;3.92;;;18.70;99.90;;;;;;5063971;28;20021;-83
2023/05/29 12:13:03;;;;;;;12.15;3.75;;;18.80;99.90;;;;;;5073742;28;20060;-81
2023/05/29 12:15:28;;;;;;;10.88;3.40;;;18.90;99.90;;;;;;5077684;28;20025;-84
2023/05/29 12:17:55;;;;;;;8.07;3.38;;;18.90;99.90;;;;;;5077895;28;20047;-84
2023/05/29 12:20:26;;;;;;;14.55;3.80;;;19.00;99.90;;;;;;5074271;28;20081;-83
2023/05/29 12:22:52;;;;;;;10.88;3.58;;;19.10;99.90;;;;;;5079992;28;20085;-83
2023/05/29 12:25:21;;;;;;;12.50;3.97;;;19.10;99.90;;;;;;5068349;28;20075;-83
2023/05/29 12:27:48;;;;;;;10.35;3.13;;;19.10;99.90;;;;;;5056434;28;20547;-82
2023/05/29 12:30:19;;;;;;;16.73;4.55;;;19.20;99.90;;;;;;5072885;28;20032;-89
2023/05/29 12:32:48;;;;;;;16.08;3.95;;;19.30;99.90;;;;;;5059379;28;20047;-86
2023/05/29 12:35:17;;;;;;;9.52;3.75;;;19.40;99.90;;;;;;5075144;28;20439;-82
2023/05/29 12:37:49;;;;;;;15.60;3.92;;;19.40;99.90;;;;;;5072534;28;20021;-83
2023/05/29 12:40:22;;;;;;;12.55;4.47;;;19.50;99.90;;;;;;5069948;28;20085;-81
2023/05/29 12:42:53;;;;;;;11.75;3.90;;;19.60;99.90;;;;;;5083068;28;20493;-83